createdAt,value
2017-08-10T00:01:10.752Z,87.90
2017-08-10T00:03:38.296Z,87.00
2017-08-10T00:06:09.135Z,86.90
2017-08-10T00:08:36.668Z,87.00
2017-08-10T00:11:04.233Z,87.40
2017-08-10T00:13:31.727Z,87.20
2017-08-10T00:15:59.275Z,86.70
2017-08-10T00:18:26.811Z,86.90
2017-08-10T00:20:58.182Z,86.60
2017-08-10T00:23:25.729Z,86.50
2017-08-10T00:25:53.246Z,93.90
2017-08-10T00:28:20.882Z,99.90
2017-08-10T00:30:48.405Z,99.90
2017-08-10T00:33:16.066Z,99.90
2017-08-10T00:35:43.640Z,99.90
2017-08-10T00:38:11.211Z,99.90
2017-08-10T00:40:38.818Z,99.90
2017-08-10T00:43:07.492Z,99.90
2017-08-10T00:45:35.803Z,99.90
2017-08-10T00:48:03.311Z,99.90
2017-08-10T00:50:30.835Z,99.90
2017-08-10T00:52:58.620Z,99.90
2017-08-10T00:55:26.256Z,99.90
2017-08-10T00:57:53.809Z,99.90
2017-08-10T01:00:21.415Z,99.90
2017-08-10T01:02:48.935Z,99.90
2017-08-10T01:05:16.441Z,99.90
2017-08-10T01:07:43.999Z,99.90
2017-08-10T01:10:11.576Z,99.60
2017-08-10T01:12:39.385Z,99.30
2017-08-10T01:15:07.456Z,98.60
2017-08-10T01:17:34.954Z,98.00
2017-08-10T01:20:02.574Z,97.40
2017-08-10T01:22:33.821Z,96.60
2017-08-10T01:25:01.314Z,96.10
2017-08-10T01:27:29.036Z,96.00
2017-08-10T01:29:56.795Z,95.50
2017-08-10T01:32:25.243Z,95.30
2017-08-10T01:34:53.572Z,94.80
2017-08-10T01:37:21.121Z,94.70
2017-08-10T01:39:48.732Z,94.90
2017-08-10T01:42:16.548Z,94.60
2017-08-10T01:44:44.089Z,94.60
2017-08-10T01:47:11.717Z,94.60
2017-08-10T01:49:39.219Z,94.50
2017-08-10T01:52:06.724Z,94.50
2017-08-10T01:54:38.428Z,94.40
2017-08-10T01:57:05.931Z,93.90
2017-08-10T01:59:33.434Z,93.70
2017-08-10T02:02:01.335Z,93.40
2017-08-10T02:04:28.844Z,93.30
2017-08-10T02:06:56.391Z,93.30
2017-08-10T02:09:25.024Z,92.70
2017-08-10T02:11:52.839Z,92.60
2017-08-10T02:14:21.167Z,92.10
2017-08-10T02:16:48.667Z,92.40
2017-08-10T02:19:16.408Z,92.70
2017-08-10T02:21:52.159Z,92.80
2017-08-10T02:24:19.668Z,92.50
2017-08-10T02:26:47.607Z,92.60
2017-08-10T02:29:15.136Z,92.80
2017-08-10T02:31:42.898Z,92.60
2017-08-10T02:34:10.636Z,92.60
2017-08-10T02:36:38.156Z,92.60
2017-08-10T02:39:05.877Z,92.90
2017-08-10T02:41:33.436Z,92.70
2017-08-10T02:44:01.269Z,93.30
2017-08-10T02:46:28.860Z,93.20
2017-08-10T02:48:56.387Z,93.00
2017-08-10T02:51:23.961Z,92.90
2017-08-10T02:53:51.459Z,93.00
2017-08-10T02:56:19.012Z,93.10
2017-08-10T02:58:46.527Z,93.30
2017-08-10T03:01:14.036Z,93.50
2017-08-10T03:03:41.570Z,93.50
2017-08-10T03:06:09.071Z,93.50
2017-08-10T03:08:36.635Z,93.70
2017-08-10T03:11:04.140Z,93.80
2017-08-10T03:13:31.810Z,93.80
2017-08-10T03:15:59.327Z,93.40
2017-08-10T03:18:27.603Z,93.60
2017-08-10T03:20:55.175Z,93.60
2017-08-10T03:23:22.680Z,93.40
2017-08-10T03:25:50.253Z,93.60
2017-08-10T03:28:17.769Z,93.60
2017-08-10T03:30:45.300Z,93.20
2017-08-10T03:33:13.937Z,92.90
2017-08-10T03:35:41.447Z,93.10
2017-08-10T03:38:09.744Z,93.20
2017-08-10T03:40:37.518Z,93.10
2017-08-10T03:43:05.023Z,93.30
2017-08-10T03:45:32.685Z,93.10
2017-08-10T03:48:00.239Z,93.40
2017-08-10T03:50:30.726Z,93.20
2017-08-10T03:52:58.347Z,92.90
2017-08-10T03:55:25.917Z,92.40
2017-08-10T03:57:53.591Z,92.40
2017-08-10T04:00:21.439Z,92.20
2017-08-10T04:02:49.013Z,91.90
2017-08-10T04:05:16.643Z,92.00
2017-08-10T04:07:44.208Z,92.50
2017-08-10T04:10:12.503Z,92.80
2017-08-10T04:12:40.298Z,92.70
2017-08-10T04:15:07.799Z,92.40
2017-08-10T04:17:35.310Z,92.40
2017-08-10T04:20:02.824Z,93.00
2017-08-10T04:22:37.358Z,93.00
2017-08-10T04:25:04.867Z,92.70
2017-08-10T04:27:32.526Z,92.60
2017-08-10T04:30:00.635Z,91.90
2017-08-10T04:32:28.131Z,91.70
2017-08-10T04:34:59.476Z,91.90
2017-08-10T04:37:27.099Z,91.40
2017-08-10T04:39:54.636Z,91.40
2017-08-10T04:42:22.378Z,91.10
2017-08-10T04:44:49.920Z,91.00
2017-08-10T04:47:17.574Z,90.50
2017-08-10T04:49:45.100Z,90.80
2017-08-10T04:52:12.616Z,90.80
2017-08-10T04:54:40.174Z,91.20
2017-08-10T04:57:07.740Z,91.10
2017-08-10T04:59:35.266Z,90.70
2017-08-10T05:02:02.875Z,90.80
2017-08-10T05:04:30.718Z,91.40
2017-08-10T05:07:02.351Z,90.20
2017-08-10T05:09:29.902Z,89.70
2017-08-10T05:11:57.403Z,89.50
2017-08-10T05:14:25.151Z,89.50
2017-08-10T05:16:53.243Z,89.40
2017-08-10T05:19:20.783Z,89.50
2017-08-10T05:21:51.925Z,89.00
2017-08-10T05:24:19.433Z,88.80
2017-08-10T05:26:46.975Z,88.40
2017-08-10T05:29:14.540Z,88.60
2017-08-10T05:31:42.373Z,89.10
2017-08-10T05:34:10.975Z,86.90
2017-08-10T05:36:43.123Z,86.70
2017-08-10T05:39:10.785Z,85.00
2017-08-10T05:41:38.535Z,85.00
2017-08-10T05:44:06.054Z,85.40
2017-08-10T05:46:33.565Z,84.30
2017-08-10T05:49:01.201Z,85.10
2017-08-10T05:51:28.991Z,85.10
2017-08-10T05:53:56.579Z,84.10
2017-08-10T05:56:24.235Z,83.30
2017-08-10T05:58:51.735Z,82.70
2017-08-10T06:01:20.368Z,84.00
2017-08-10T06:03:47.879Z,84.00
2017-08-10T06:06:15.433Z,84.60
2017-08-10T06:08:47.024Z,84.40
2017-08-10T06:11:14.535Z,83.60
2017-08-10T06:13:43.784Z,85.10
2017-08-10T06:16:11.536Z,84.30
2017-08-10T06:18:39.079Z,83.90
2017-08-10T06:21:06.578Z,83.50
2017-08-10T06:23:34.132Z,84.00
2017-08-10T06:26:01.654Z,83.80
2017-08-10T06:28:29.221Z,83.30
2017-08-10T06:30:56.900Z,83.10
2017-08-10T06:33:24.915Z,82.90
2017-08-10T06:35:52.420Z,82.00
2017-08-10T06:38:19.928Z,82.00
2017-08-10T06:40:49.166Z,81.40
2017-08-10T06:43:16.667Z,81.90
2017-08-10T06:45:44.407Z,81.90
2017-08-10T06:48:11.972Z,82.30
2017-08-10T06:50:39.476Z,80.90
2017-08-10T06:53:06.983Z,80.80
2017-08-10T06:55:34.652Z,80.50
2017-08-10T06:58:02.584Z,81.50
2017-08-10T07:00:30.367Z,80.00
2017-08-10T07:02:57.905Z,80.80
2017-08-10T07:05:26.185Z,80.10
2017-08-10T07:07:54.325Z,80.10
2017-08-10T07:10:23.900Z,80.30
2017-08-10T07:12:51.903Z,79.70
2017-08-10T07:15:19.720Z,79.30
2017-08-10T07:17:47.231Z,80.90
2017-08-10T07:20:14.741Z,82.20
2017-08-10T07:22:42.680Z,82.20
2017-08-10T07:25:10.183Z,82.80
2017-08-10T07:27:37.680Z,81.70
2017-08-10T07:30:05.369Z,81.10
2017-08-10T07:32:32.868Z,81.40
2017-08-10T07:35:00.377Z,80.10
2017-08-10T07:37:27.900Z,79.10
2017-08-10T07:39:55.481Z,79.50
2017-08-10T07:42:22.991Z,79.00
2017-08-10T07:44:50.664Z,77.50
2017-08-10T07:47:18.223Z,77.70
2017-08-10T07:49:45.730Z,77.50
2017-08-10T07:52:14.029Z,78.30
2017-08-10T07:54:45.932Z,78.30
2017-08-10T07:57:13.977Z,79.00
2017-08-10T07:59:41.584Z,78.00
2017-08-10T08:02:09.090Z,77.00
2017-08-10T08:04:36.804Z,76.30
2017-08-10T08:07:04.328Z,76.80
2017-08-10T08:09:31.851Z,78.10
2017-08-10T08:11:59.532Z,78.30
2017-08-10T08:14:27.299Z,78.20
2017-08-10T08:16:54.856Z,79.00
2017-08-10T08:19:22.523Z,78.40
2017-08-10T08:21:50.026Z,77.90
2017-08-10T08:24:20.805Z,78.30
2017-08-10T08:26:48.306Z,79.10
2017-08-10T08:29:16.665Z,77.70
2017-08-10T08:31:44.228Z,77.70
2017-08-10T08:34:12.088Z,77.60
2017-08-10T08:36:39.635Z,76.60
2017-08-10T08:39:14.451Z,77.00
2017-08-10T08:41:42.008Z,75.80
2017-08-10T08:44:09.546Z,75.90
2017-08-10T08:46:37.055Z,75.50
2017-08-10T08:49:04.572Z,73.80
2017-08-10T08:51:32.347Z,74.60
2017-08-10T08:54:00.126Z,74.20
2017-08-10T08:56:28.800Z,74.10
2017-08-10T08:58:56.313Z,75.80
2017-08-10T09:01:23.978Z,76.20
2017-08-10T09:03:51.566Z,75.70
2017-08-10T09:06:19.077Z,77.00
2017-08-10T09:08:46.721Z,76.60
2017-08-10T09:11:14.239Z,78.20
2017-08-10T09:13:42.190Z,76.90
2017-08-10T09:16:09.702Z,76.90
2017-08-10T09:18:37.207Z,76.30
2017-08-10T09:21:05.504Z,76.50
2017-08-10T09:23:33.020Z,76.50
2017-08-10T09:26:06.212Z,76.10
2017-08-10T09:28:33.723Z,75.30
2017-08-10T09:31:01.475Z,76.30
2017-08-10T09:33:29.271Z,75.50
2017-08-10T09:35:57.284Z,75.50
2017-08-10T09:38:24.811Z,76.50
2017-08-10T09:40:56.249Z,76.90
2017-08-10T09:43:23.938Z,76.70
2017-08-10T09:45:51.474Z,76.60
2017-08-10T09:48:20.068Z,76.90
2017-08-10T09:50:47.718Z,76.70
2017-08-10T09:53:15.295Z,76.20
2017-08-10T09:55:42.844Z,75.50
2017-08-10T09:58:10.361Z,74.90
2017-08-10T10:00:37.869Z,75.40
2017-08-10T10:03:05.508Z,74.70
2017-08-10T10:05:33.022Z,76.00
2017-08-10T10:08:01.299Z,76.40
2017-08-10T10:10:28.810Z,76.50
2017-08-10T10:12:56.329Z,77.20
2017-08-10T10:15:24.612Z,76.50
2017-08-10T10:17:52.115Z,76.50
2017-08-10T10:20:19.623Z,76.60
2017-08-10T10:22:48.135Z,77.00
2017-08-10T10:25:15.695Z,77.00
2017-08-10T10:27:43.204Z,77.00
2017-08-10T10:30:13.483Z,77.50
2017-08-10T10:32:41.019Z,76.60
2017-08-10T10:35:08.536Z,76.20
2017-08-10T10:37:36.091Z,75.60
2017-08-10T10:40:03.627Z,76.70
2017-08-10T10:42:35.879Z,77.20
2017-08-10T10:45:03.392Z,76.40
2017-08-10T10:47:31.705Z,75.80
2017-08-10T10:49:59.290Z,75.50
2017-08-10T10:52:27.142Z,74.60
2017-08-10T10:54:54.675Z,75.00
2017-08-10T10:57:26.667Z,75.20
2017-08-10T10:59:54.202Z,74.50
2017-08-10T11:02:21.831Z,74.10
2017-08-10T11:04:49.396Z,73.50
2017-08-10T11:07:16.935Z,74.10
2017-08-10T11:09:44.570Z,74.40
2017-08-10T11:12:12.075Z,74.30
2017-08-10T11:14:39.623Z,74.10
2017-08-10T11:17:07.179Z,74.30
2017-08-10T11:19:34.708Z,74.50
2017-08-10T11:22:02.257Z,74.10
2017-08-10T11:24:29.772Z,74.00
2017-08-10T11:26:58.116Z,74.50
2017-08-10T11:29:25.665Z,74.50
2017-08-10T11:31:53.192Z,74.40
2017-08-10T11:34:20.810Z,74.30
2017-08-10T11:36:48.521Z,72.60
2017-08-10T11:39:16.100Z,72.70
2017-08-10T11:41:43.620Z,72.80
2017-08-10T11:44:11.135Z,72.40
2017-08-10T11:46:38.691Z,71.40
2017-08-10T11:49:06.220Z,71.30
2017-08-10T11:51:34.009Z,72.10
2017-08-10T11:54:01.628Z,73.10
2017-08-10T11:56:29.920Z,73.70
2017-08-10T11:59:01.224Z,73.90
2017-08-10T12:01:28.737Z,73.30
2017-08-10T12:03:56.710Z,71.90
2017-08-10T12:06:24.282Z,71.30
2017-08-10T12:08:51.811Z,70.00
2017-08-10T12:11:19.371Z,70.50
2017-08-10T12:13:50.873Z,69.60
2017-08-10T12:16:18.416Z,69.30
2017-08-10T12:18:45.976Z,68.80
2017-08-10T12:21:13.559Z,68.90
2017-08-10T12:23:41.111Z,68.30
2017-08-10T12:26:08.728Z,68.60
2017-08-10T12:28:43.568Z,68.80
2017-08-10T12:31:11.599Z,68.70
2017-08-10T12:33:39.188Z,68.60
2017-08-10T12:36:07.179Z,69.40
2017-08-10T12:38:35.345Z,69.30
2017-08-10T12:41:02.860Z,69.80
2017-08-10T12:43:32.924Z,68.30
2017-08-10T12:46:00.563Z,69.70
2017-08-10T12:48:28.088Z,70.40
2017-08-10T12:50:55.664Z,71.50
2017-08-10T12:53:23.204Z,70.90
2017-08-10T12:55:50.813Z,70.30
2017-08-10T12:58:18.336Z,69.70
2017-08-10T13:00:45.855Z,69.80
2017-08-10T13:03:13.411Z,69.60
2017-08-10T13:05:40.920Z,70.60
2017-08-10T13:08:08.623Z,71.60
2017-08-10T13:10:36.201Z,72.00
2017-08-10T13:13:03.735Z,72.70
2017-08-10T13:15:31.310Z,73.00
2017-08-10T13:17:58.854Z,73.00
2017-08-10T13:20:26.926Z,72.50
2017-08-10T13:22:54.483Z,72.20
2017-08-10T13:25:21.994Z,71.40
2017-08-10T13:27:49.544Z,71.30
2017-08-10T13:30:17.064Z,70.80
2017-08-10T13:32:44.842Z,69.90
2017-08-10T13:35:12.355Z,69.70
2017-08-10T13:37:40.040Z,69.80
2017-08-10T13:40:07.642Z,69.30
2017-08-10T13:42:36.176Z,70.60
2017-08-10T13:45:07.637Z,70.80
2017-08-10T13:47:35.298Z,71.80
2017-08-10T13:50:03.104Z,72.00
2017-08-10T13:52:30.622Z,72.50
2017-08-10T13:54:58.130Z,73.50
2017-08-10T13:57:26.412Z,73.40
2017-08-10T13:59:53.941Z,73.40
2017-08-10T14:02:21.942Z,73.40
2017-08-10T14:04:49.511Z,74.30
2017-08-10T14:07:17.208Z,73.90
2017-08-10T14:09:44.971Z,73.10
2017-08-10T14:12:12.737Z,72.90
2017-08-10T14:14:41.012Z,73.30
2017-08-10T14:17:08.568Z,73.60
2017-08-10T14:19:36.323Z,73.70
2017-08-10T14:22:04.354Z,73.80
2017-08-10T14:24:32.164Z,74.40
2017-08-10T14:27:00.041Z,74.50
2017-08-10T14:29:27.972Z,73.90
2017-08-10T14:31:55.476Z,73.60
2017-08-10T14:34:23.029Z,73.60
2017-08-10T14:36:50.686Z,74.10
2017-08-10T14:39:18.244Z,73.90
2017-08-10T14:41:45.752Z,73.90
2017-08-10T14:44:13.616Z,74.60
2017-08-10T14:46:43.915Z,74.10
2017-08-10T14:49:11.435Z,75.00
2017-08-10T14:51:39.159Z,75.40
2017-08-10T14:54:07.189Z,75.90
2017-08-10T14:56:34.952Z,75.80
2017-08-10T14:59:02.708Z,76.40
2017-08-10T15:01:30.219Z,77.10
2017-08-10T15:03:58.021Z,76.80
2017-08-10T15:06:25.540Z,76.90
2017-08-10T15:08:53.451Z,77.90
2017-08-10T15:11:21.260Z,78.60
2017-08-10T15:13:48.783Z,78.40
2017-08-10T15:16:16.359Z,78.90
2017-08-10T15:18:43.887Z,78.90
2017-08-10T15:21:11.947Z,78.80
2017-08-10T15:23:39.726Z,78.90
2017-08-10T15:26:07.503Z,79.20
2017-08-10T15:28:35.008Z,79.90
2017-08-10T15:31:04.564Z,80.70
2017-08-10T15:33:32.115Z,81.00
2017-08-10T15:35:59.620Z,82.00
2017-08-10T15:38:27.495Z,82.30
2017-08-10T15:40:55.052Z,83.00
2017-08-10T15:43:22.640Z,83.10
2017-08-10T15:45:50.148Z,83.90
2017-08-10T15:48:17.705Z,85.30
2017-08-10T15:50:45.262Z,86.10
2017-08-10T15:53:12.775Z,87.00
2017-08-10T15:55:40.289Z,88.70
2017-08-10T15:58:07.871Z,88.60
2017-08-10T16:00:35.916Z,89.60
2017-08-10T16:03:03.476Z,89.80
2017-08-10T16:05:31.115Z,89.60
2017-08-10T16:07:58.614Z,89.40
2017-08-10T16:10:26.148Z,90.30
2017-08-10T16:12:53.652Z,90.10
2017-08-10T16:15:21.223Z,89.60
2017-08-10T16:17:48.728Z,90.00
2017-08-10T16:20:16.235Z,90.00
2017-08-10T16:22:43.949Z,90.30
2017-08-10T16:25:11.490Z,90.10
2017-08-10T16:27:39.115Z,90.20
2017-08-10T16:30:06.631Z,90.40
2017-08-10T16:32:38.673Z,90.70
2017-08-10T16:35:06.187Z,90.80
2017-08-10T16:37:34.476Z,89.10
2017-08-10T16:40:02.212Z,89.10
2017-08-10T16:42:29.842Z,88.40
2017-08-10T16:44:57.358Z,89.10
2017-08-10T16:47:28.331Z,88.70
2017-08-10T16:49:55.832Z,88.40
2017-08-10T16:52:23.371Z,89.20
2017-08-10T16:54:50.876Z,89.00
2017-08-10T16:57:18.422Z,88.10
2017-08-10T16:59:46.135Z,90.20
2017-08-10T17:02:13.646Z,89.00
2017-08-10T17:04:41.160Z,89.50
2017-08-10T17:07:08.658Z,90.00
2017-08-10T17:09:36.209Z,90.30
2017-08-10T17:12:03.744Z,90.50
2017-08-10T17:14:31.287Z,90.40
2017-08-10T17:16:58.778Z,89.50
2017-08-10T17:19:26.332Z,89.70
2017-08-10T17:21:53.830Z,88.30
2017-08-10T17:24:21.518Z,88.10
2017-08-10T17:26:49.099Z,87.90
2017-08-10T17:29:16.632Z,89.20
2017-08-10T17:31:44.152Z,88.30
2017-08-10T17:34:12.428Z,88.40
2017-08-10T17:36:39.980Z,88.80
2017-08-10T17:39:08.252Z,87.30
2017-08-10T17:41:35.757Z,87.30
2017-08-10T17:44:03.260Z,87.20
2017-08-10T17:46:30.758Z,87.60
2017-08-10T17:48:58.272Z,86.30
2017-08-10T17:51:26.131Z,86.30
2017-08-10T17:53:53.627Z,86.50
2017-08-10T17:56:21.135Z,86.80
2017-08-10T17:58:48.634Z,86.40
2017-08-10T18:01:16.919Z,87.20
2017-08-10T18:03:44.447Z,87.20
2017-08-10T18:06:11.973Z,88.10
2017-08-10T18:08:39.739Z,87.50
2017-08-10T18:11:07.344Z,88.00
2017-08-10T18:13:35.204Z,89.20
2017-08-10T18:16:02.719Z,89.50
2017-08-10T18:18:33.149Z,89.60
2017-08-10T18:21:00.721Z,90.00
2017-08-10T18:23:28.214Z,90.00
2017-08-10T18:25:55.747Z,90.40
2017-08-10T18:28:23.251Z,90.10
2017-08-10T18:30:50.820Z,90.20
2017-08-10T18:33:18.416Z,90.30
2017-08-10T18:35:46.067Z,90.10
2017-08-10T18:38:13.631Z,90.20
2017-08-10T18:40:43.275Z,90.20
2017-08-10T18:43:10.815Z,90.50
2017-08-10T18:45:38.807Z,90.10
2017-08-10T18:48:06.315Z,89.80
2017-08-10T18:50:33.831Z,88.90
2017-08-10T18:53:04.363Z,89.10
2017-08-10T18:55:32.668Z,89.10
2017-08-10T18:58:00.194Z,89.00
2017-08-10T19:00:28.483Z,89.60
2017-08-10T19:02:55.983Z,89.60
2017-08-10T19:05:23.486Z,88.60
2017-08-10T19:07:51.446Z,88.70
2017-08-10T19:10:19.015Z,88.20
2017-08-10T19:12:47.307Z,88.00
2017-08-10T19:15:14.839Z,88.00
2017-08-10T19:17:42.835Z,87.90
2017-08-10T19:20:10.368Z,88.40
2017-08-10T19:22:37.879Z,88.00
2017-08-10T19:25:05.415Z,88.00
2017-08-10T19:27:33.055Z,87.90
2017-08-10T19:30:01.732Z,88.10
2017-08-10T19:32:29.262Z,88.10
2017-08-10T19:34:56.919Z,87.90
2017-08-10T19:37:28.360Z,88.40
2017-08-10T19:39:56.372Z,88.70
2017-08-10T19:42:23.933Z,89.20
2017-08-10T19:44:51.790Z,89.20
2017-08-10T19:47:19.500Z,89.40
2017-08-10T19:49:47.072Z,89.40
2017-08-10T19:52:19.247Z,88.60
2017-08-10T19:54:47.739Z,88.30
2017-08-10T19:57:15.244Z,88.30
2017-08-10T19:59:42.808Z,88.50
2017-08-10T20:02:10.329Z,88.80
2017-08-10T20:04:37.913Z,89.40
2017-08-10T20:07:05.506Z,88.40
2017-08-10T20:09:33.040Z,88.80
2017-08-10T20:12:05.371Z,89.10
2017-08-10T20:14:32.928Z,89.00
2017-08-10T20:17:00.596Z,89.10
2017-08-10T20:19:28.136Z,88.90
2017-08-10T20:21:58.627Z,88.40
2017-08-10T20:24:26.888Z,89.10
2017-08-10T20:26:55.315Z,89.70
2017-08-10T20:29:22.815Z,89.20
2017-08-10T20:31:50.415Z,89.00
2017-08-10T20:34:17.950Z,89.10
2017-08-10T20:36:45.497Z,90.10
2017-08-10T20:39:17.525Z,89.50
2017-08-10T20:41:45.079Z,89.00
2017-08-10T20:44:13.557Z,89.30
2017-08-10T20:46:41.081Z,89.20
2017-08-10T20:49:08.596Z,89.40
2017-08-10T20:51:40.100Z,89.60
2017-08-10T20:54:08.368Z,89.60
2017-08-10T20:56:35.907Z,89.60
2017-08-10T20:59:03.399Z,89.50
2017-08-10T21:01:30.914Z,89.20
2017-08-10T21:03:58.443Z,89.10
2017-08-10T21:06:30.000Z,88.70
2017-08-10T21:08:58.603Z,88.80
2017-08-10T21:11:26.120Z,88.60
2017-08-10T21:13:53.618Z,88.60
2017-08-10T21:16:21.155Z,88.80
2017-08-10T21:18:49.559Z,88.60
2017-08-10T21:21:17.440Z,88.30
2017-08-10T21:23:48.627Z,88.50
2017-08-10T21:26:16.167Z,87.90
2017-08-10T21:28:44.459Z,86.60
2017-08-10T21:31:11.963Z,86.60
2017-08-10T21:33:39.522Z,86.30
2017-08-10T21:36:07.153Z,86.10
2017-08-10T21:38:39.326Z,85.70
2017-08-10T21:41:07.230Z,86.70
2017-08-10T21:43:34.830Z,86.40
2017-08-10T21:46:02.590Z,87.10
2017-08-10T21:48:30.107Z,88.20
2017-08-10T21:50:57.762Z,87.30
2017-08-10T21:53:29.798Z,87.30
2017-08-10T21:55:57.319Z,86.60
2017-08-10T21:58:25.648Z,87.50
2017-08-10T22:00:53.395Z,87.50
2017-08-10T22:03:20.937Z,87.60
2017-08-10T22:05:48.444Z,87.30
2017-08-10T22:08:19.765Z,86.70
2017-08-10T22:10:47.303Z,86.90
2017-08-10T22:13:14.824Z,86.80
2017-08-10T22:15:42.380Z,86.70
2017-08-10T22:18:09.896Z,87.50
2017-08-10T22:20:37.658Z,87.20
2017-08-10T22:23:08.765Z,87.10
2017-08-10T22:25:37.422Z,86.50
2017-08-10T22:28:04.931Z,86.80
2017-08-10T22:30:32.441Z,86.80
2017-08-10T22:33:00.268Z,86.40
2017-08-10T22:35:27.796Z,86.20
2017-08-10T22:37:55.307Z,86.00
2017-08-10T22:40:26.634Z,85.40
2017-08-10T22:42:55.051Z,86.40
2017-08-10T22:45:22.964Z,86.60
2017-08-10T22:47:50.476Z,86.80
2017-08-10T22:50:18.034Z,86.80
2017-08-10T22:52:45.536Z,86.70
2017-08-10T22:55:13.087Z,86.90
2017-08-10T22:57:40.639Z,86.40
2017-08-10T23:00:09.361Z,86.20
2017-08-10T23:02:36.870Z,86.20
2017-08-10T23:05:04.389Z,86.10
2017-08-10T23:07:31.903Z,85.50
2017-08-10T23:09:59.703Z,85.30
2017-08-10T23:12:27.212Z,85.80
2017-08-10T23:14:56.088Z,85.90
2017-08-10T23:17:23.607Z,85.90
2017-08-10T23:19:51.371Z,85.60
2017-08-10T23:22:19.076Z,86.00
2017-08-10T23:24:46.635Z,86.40
2017-08-10T23:27:14.153Z,86.10
2017-08-10T23:29:42.120Z,86.60
2017-08-10T23:32:09.639Z,86.60
2017-08-10T23:34:37.153Z,86.50
2017-08-10T23:37:05.667Z,86.60
2017-08-10T23:39:35.656Z,86.80
2017-08-10T23:42:03.197Z,87.00
2017-08-10T23:44:30.704Z,86.50
2017-08-10T23:46:58.848Z,86.30
2017-08-10T23:49:26.692Z,85.70
2017-08-10T23:51:54.265Z,85.80
2017-08-10T23:54:25.308Z,85.60
2017-08-10T23:56:52.845Z,85.70
2017-08-10T23:59:20.349Z,86.20
